Time;durP1;ratioP1;P1;durP2;ratioP2;P2;SDS_P1;SDS_P2;PMS_P1;PMS_P2;Temp;Humidity;BMP_temperature;BMP_pressure;BME280_temperature;BME280_humidity;BME280_pressure;Samples;Min_cycle;Max_cycle;Signal;HPM_P1;HPM_P2
2021/01/31 00:01:36;;;;;;;22.83;10.55;;;;;;;1.25;91.37;95878.97;4986011;28;20052;-63
2021/01/31 00:04:02;;;;;;;26.05;13.50;;;;;;;1.24;91.64;95880.13;4987893;28;20034;-65
2021/01/31 00:06:27;;;;;;;26.83;13.70;;;;;;;0.76;91.05;95817.31;4987192;28;20026;-63
2021/01/31 00:08:53;;;;;;;24.85;12.32;;;;;;;0.35;91.16;95748.59;4986071;28;20096;-64
2021/01/31 00:11:18;;;;;;;24.42;11.48;;;;;;;1.34;91.33;95912.38;4985586;28;20042;-63
2021/01/31 00:13:45;;;;;;;25.17;11.85;;;;;;;1.30;90.63;95900.56;4987552;28;20042;-64
2021/01/31 00:16:11;;;;;;;17.90;7.18;;;;;;;1.00;90.29;95858.25;4985547;28;20033;-63
2021/01/31 00:18:37;;;;;;;16.60;7.60;;;;;;;0.55;91.28;95876.53;4985326;28;20058;-63
2021/01/31 00:21:03;;;;;;;15.35;7.75;;;;;;;0.12;91.67;95701.09;4987111;28;20053;-63
2021/01/31 00:23:29;;;;;;;15.55;8.68;;;;;;;1.39;91.89;95917.63;4987179;28;20042;-64
2021/01/31 00:25:55;;;;;;;13.85;7.53;;;;;;;1.13;92.68;95868.06;4986940;28;20035;-65
2021/01/31 00:28:24;;;;;;;17.00;8.00;;;;;;;1.23;92.45;95873.03;4985816;28;20137;-64
2021/01/31 00:30:50;;;;;;;20.05;8.75;;;;;;;1.23;92.94;95880.44;4984976;28;20425;-63
2021/01/31 00:33:17;;;;;;;17.48;6.78;;;;;;;1.27;93.42;95914.88;4986893;28;20034;-63
2021/01/31 00:35:42;;;;;;;16.20;7.20;;;;;;;1.32;94.13;95911.94;4985085;28;20034;-63
2021/01/31 00:38:11;;;;;;;12.52;5.10;;;;;;;1.28;94.00;95913.75;4986705;28;20117;-63
2021/01/31 00:40:36;;;;;;;11.13;4.85;;;;;;;0.04;94.29;95708.22;4984883;28;20125;-63
2021/01/31 00:43:03;;;;;;;11.57;4.85;;;;;;;1.24;94.01;95882.84;4984935;28;20122;-64
2021/01/31 00:45:29;;;;;;;13.40;5.85;;;;;;;1.56;93.10;95925.59;4986318;28;20069;-66
2021/01/31 00:47:55;;;;;;;27.75;13.00;;;;;;;1.66;91.93;95918.88;4986239;28;20035;-63
2021/01/31 00:50:32;;;;;;;28.10;11.82;;;;;;;1.70;91.61;95925.28;4986246;28;20049;-63
2021/01/31 00:52:58;;;;;;;30.85;13.50;;;;;;;1.83;91.50;95917.88;4986075;28;20070;-63
2021/01/31 00:55:24;;;;;;;28.33;12.00;;;;;;;1.51;89.75;95860.34;4985095;28;20023;-63
2021/01/31 00:57:50;;;;;;;28.95;11.18;;;;;;;1.86;89.07;95923.44;4986432;28;20465;-64
2021/01/31 01:00:18;;;;;;;29.80;11.50;;;;;;;1.79;89.27;95927.91;4984559;28;20451;-64
2021/01/31 01:02:45;;;;;;;29.98;13.20;;;;;;;1.84;88.57;95919.44;4986330;28;20166;-63
2021/01/31 01:05:11;;;;;;;31.52;12.43;;;;;;;0.84;89.71;95789.19;4984783;28;20066;-63
2021/01/31 01:07:37;;;;;;;23.92;10.73;;;;;;;1.71;89.93;95923.34;4984775;28;20030;-63
2021/01/31 01:10:07;;;;;;;26.83;12.00;;;;;;;1.05;89.93;95828.06;4986561;28;20030;-63
2021/01/31 01:12:33;;;;;;;45.50;17.42;;;;;;;1.20;90.32;95840.22;4986330;28;20038;-63
2021/01/31 01:14:59;;;;;;;43.63;17.17;;;;;;;1.72;91.32;95922.19;4986226;28;20129;-64
2021/01/31 01:17:24;;;;;;;37.05;17.35;;;;;;;1.36;90.84;95863.75;4986002;28;20509;-63
2021/01/31 01:19:50;;;;;;;34.08;16.63;;;;;;;1.62;90.98;95928.09;4985805;28;20113;-63
2021/01/31 01:22:15;;;;;;;33.28;15.73;;;;;;;-1.94;90.28;95354.50;4985828;28;20113;-63
2021/01/31 01:24:41;;;;;;;44.42;18.23;;;;;;;1.05;90.77;95828.06;4984505;28;20129;-64
2021/01/31 01:27:06;;;;;;;41.30;19.38;;;;;;;1.70;90.49;95913.53;4985574;28;20034;-63
2021/01/31 01:29:31;;;;;;;46.00;20.02;;;;;;;1.60;91.20;95922.19;4986103;28;20053;-63
2021/01/31 01:31:57;;;;;;;60.53;23.85;;;;;;;1.74;90.25;95930.84;4985516;28;20042;-65
2021/01/31 01:34:22;;;;;;;60.67;24.30;;;;;;;1.82;89.82;95919.03;4985905;28;20042;-63
2021/01/31 01:36:48;;;;;;;56.65;24.67;;;;;;;1.91;88.32;95915.03;4985658;28;20041;-63
2021/01/31 01:39:13;;;;;;;52.10;21.58;;;;;;;1.86;88.54;95917.19;4984095;28;20112;-65
2021/01/31 01:41:41;;;;;;;54.47;20.05;;;;;;;1.92;88.48;95915.81;4985535;28;20034;-63
2021/01/31 01:44:08;;;;;;;48.33;20.30;;;;;;;1.56;88.63;95892.84;4984056;28;20045;-62
2021/01/31 01:46:37;;;;;;;58.60;25.08;;;;;;;1.85;89.51;95942.91;4985412;28;20032;-62
2021/01/31 01:49:12;;;;;;;62.53;24.73;;;;;;;1.64;88.85;95893.09;4984128;28;20517;-63
2021/01/31 01:51:55;;;;;;;48.65;21.10;;;;;;;1.83;89.30;95936.97;4980202;28;20054;-63
2021/01/31 01:54:31;;;;;;;38.20;16.60;;;;;;;1.12;89.09;95816.59;4980592;28;20093;-63
2021/01/31 01:57:08;;;;;;;36.80;17.42;;;;;;;1.64;90.09;95917.66;4965919;28;20031;-65
2021/01/31 01:59:35;;;;;;;21.55;10.00;;;;;;;1.62;91.05;95928.09;4965906;28;20038;-64
2021/01/31 02:02:24;;;;;;;24.20;9.60;;;;;;;1.74;91.36;95919.94;4980516;28;20065;-65
2021/01/31 02:04:50;;;;;;;33.75;14.98;;;;;;;1.17;90.67;95830.78;4980608;28;20050;-63
2021/01/31 02:07:16;;;;;;;35.75;15.35;;;;;;;1.85;90.45;95930.03;4966258;28;20046;-63
2021/01/31 02:09:46;;;;;;;30.88;15.07;;;;;;;1.46;90.17;95848.84;4981123;28;21101;-63
2021/01/31 02:12:12;;;;;;;36.17;14.30;;;;;;;1.20;89.82;95819.19;4965865;28;20031;-64
2021/01/31 02:14:38;;;;;;;36.33;16.15;;;;;;;1.98;89.96;95904.31;4966082;28;20045;-65
2021/01/31 02:17:11;;;;;;;28.17;12.55;;;;;;;2.03;88.56;95901.34;4965808;28;20449;-64
2021/01/31 02:19:37;;;;;;;38.60;16.33;;;;;;;1.98;88.96;95909.78;4966151;28;20055;-64
2021/01/31 02:22:24;;;;;;;37.35;14.45;;;;;;;2.09;88.82;95893.72;4966085;28;20046;-65
2021/01/31 02:25:28;;;;;;;33.58;15.65;;;;;;;2.15;88.13;95897.81;4980720;28;20038;-65
2021/01/31 02:28:02;;;;;;;44.70;18.58;;;;;;;2.12;88.56;95893.06;4964205;28;20062;-63
2021/01/31 02:31:05;;;;;;;32.05;13.88;;;;;;;2.04;89.11;95886.56;4965516;28;20039;-64
2021/01/31 02:33:33;;;;;;;27.73;11.38;;;;;;;2.15;88.66;95886.91;4965949;28;20050;-64
2021/01/31 02:36:32;;;;;;;31.42;12.75;;;;;;;1.54;88.37;95807.84;4965364;28;20850;-63
2021/01/31 02:39:30;;;;;;;24.40;11.63;;;;;;;2.03;88.99;95873.25;4965689;28;20457;-64
2021/01/31 02:42:04;;;;;;;15.65;7.13;;;;;;;2.07;89.11;95893.28;4951151;28;20521;-62
2021/01/31 02:44:35;;;;;;;32.50;14.55;;;;;;;1.02;88.96;95748.88;4965792;28;20038;-62
2021/01/31 02:47:05;;;;;;;26.30;10.15;;;;;;;2.07;89.69;95898.75;4965604;28;20121;-63
2021/01/31 02:49:35;;;;;;;27.23;11.30;;;;;;;2.08;89.06;95887.47;4965593;28;20110;-64
2021/01/31 02:52:07;;;;;;;26.73;11.48;;;;;;;2.01;89.16;95894.66;4964131;28;20062;-66
2021/01/31 02:55:01;;;;;;;37.83;13.45;;;;;;;2.01;90.09;95897.41;4964355;28;20485;-65
2021/01/31 02:57:43;;;;;;;34.67;15.07;;;;;;;1.99;90.22;95894.97;4965530;28;20122;-65
2021/01/31 03:00:15;;;;;;;33.22;14.80;;;;;;;2.02;90.19;95893.50;4964532;28;20094;-64
2021/01/31 03:02:55;;;;;;;31.52;11.82;;;;;;;0.89;88.82;95707.19;4965574;28;20031;-64
2021/01/31 03:05:26;;;;;;;28.45;11.18;;;;;;;2.20;88.42;95905.75;4964126;28;20430;-65
2021/01/31 03:08:18;;;;;;;19.52;9.23;;;;;;;2.25;88.47;95900.06;4963711;28;20041;-66
2021/01/31 03:10:47;;;;;;;25.35;10.93;;;;;;;-0.95;87.80;95406.84;4965421;28;20039;-63
2021/01/31 03:13:19;;;;;;;25.90;11.07;;;;;;;2.53;87.95;95930.97;4969191;28;20110;-63
2021/01/31 03:15:52;;;;;;;27.33;11.95;;;;;;;2.22;87.78;95870.69;4968999;28;20473;-63
2021/01/31 03:18:24;;;;;;;24.00;9.70;;;;;;;2.28;87.31;95896.63;4967512;28;20053;-64
2021/01/31 03:21:05;;;;;;;22.48;9.82;;;;;;;2.20;88.65;95906.56;4968644;28;20031;-64
2021/01/31 03:23:39;;;;;;;36.63;13.45;;;;;;;2.26;87.92;95909.84;4967342;28;20494;-64
2021/01/31 03:26:31;;;;;;;28.65;13.20;;;;;;;2.30;87.93;95905.28;4968581;28;20046;-64
2021/01/31 03:28:56;;;;;;;29.25;12.52;;;;;;;2.31;87.93;95906.91;4967174;28;20058;-63
2021/01/31 03:31:25;;;;;;;27.52;12.70;;;;;;;2.38;88.09;95915.28;4968509;28;20037;-63
2021/01/31 03:33:57;;;;;;;68.20;28.52;;;;;;;2.39;88.28;95908.66;4968912;28;20105;-62
2021/01/31 03:36:25;;;;;;;135.88;44.15;;;;;;;2.10;86.96;95873.47;4968445;28;20022;-63
2021/01/31 03:38:53;;;;;;;37.10;15.60;;;;;;;1.58;86.97;95786.13;4966933;28;20046;-64
2021/01/31 03:41:24;;;;;;;147.88;50.03;;;;;;;2.05;87.44;95862.78;4968214;28;20310;-64
2021/01/31 03:43:50;;;;;;;83.20;28.55;;;;;;;2.34;88.38;95911.66;4982508;28;20053;-63
2021/01/31 03:46:23;;;;;;;311.67;106.68;;;;;;;2.24;88.74;95917.59;4987450;28;20038;-64
2021/01/31 03:48:58;;;;;;;65.80;28.48;;;;;;;2.30;89.10;95932.59;4986189;28;20066;-66
2021/01/31 03:51:26;;;;;;;53.33;24.50;;;;;;;2.37;89.13;95927.38;4987701;28;20169;-65
2021/01/31 03:53:52;;;;;;;57.65;24.60;;;;;;;1.72;88.61;95878.53;4987776;28;20042;-64
2021/01/31 03:56:28;;;;;;;33.83;15.73;;;;;;;2.05;88.76;95860.06;4986130;28;20073;-66
2021/01/31 03:58:56;;;;;;;75.13;30.67;;;;;;;2.15;87.69;95854.13;4986101;28;20050;-66
2021/01/31 04:01:25;;;;;;;55.70;23.65;;;;;;;2.54;88.02;95921.63;4986243;28;20037;-65
2021/01/31 04:04:15;;;;;;;56.40;22.45;;;;;;;2.55;88.07;95913.06;4987715;28;20108;-64
2021/01/31 04:06:41;;;;;;;48.15;25.13;;;;;;;2.68;88.04;95900.16;4986128;28;20030;-63
2021/01/31 04:09:10;;;;;;;62.63;26.88;;;;;;;2.62;87.75;95912.47;4986287;28;20477;-64
2021/01/31 04:11:38;;;;;;;51.42;23.60;;;;;;;2.55;87.58;95906.81;4985981;28;20088;-64
2021/01/31 04:14:18;;;;;;;45.90;21.65;;;;;;;2.61;87.71;95894.47;4986223;28;20034;-63
2021/01/31 04:16:47;;;;;;;62.08;27.02;;;;;;;1.92;88.05;95790.22;4980899;28;20061;-65
2021/01/31 04:19:13;;;;;;;31.58;15.77;;;;;;;2.01;88.10;95842.78;4968031;28;20525;-64
2021/01/31 04:21:39;;;;;;;11.90;5.38;;;;;;;2.19;88.81;95910.44;4982540;28;20050;-63
2021/01/31 04:24:05;;;;;;;8.45;4.20;;;;;;;1.40;94.37;95926.59;4967526;28;20485;-64
2021/01/31 04:26:31;;;;;;;6.65;3.28;;;;;;;1.22;97.40;95909.63;4967521;28;20062;-65
2021/01/31 04:28:57;;;;;;;13.82;8.85;;;;;;;1.15;97.40;95871.25;4967752;28;20073;-65
2021/01/31 04:31:22;;;;;;;23.27;18.15;;;;;;;1.46;97.21;95909.69;4967246;28;20039;-63
2021/01/31 04:33:47;;;;;;;13.32;7.78;;;;;;;1.30;96.50;95851.47;4967717;28;20026;-62
2021/01/31 04:36:13;;;;;;;13.60;6.82;;;;;;;0.88;95.32;95784.66;4967390;28;20030;-63
2021/01/31 04:38:39;;;;;;;32.33;16.05;;;;;;;1.54;94.31;95854.22;4967862;28;20415;-63
2021/01/31 04:41:04;;;;;;;29.38;13.90;;;;;;;1.45;93.61;95845.31;4981845;28;20137;-63
2021/01/31 04:43:30;;;;;;;42.85;20.33;;;;;;;1.58;94.14;95845.34;4975827;28;20060;-62
2021/01/31 04:45:57;;;;;;;44.22;22.63;;;;;;;1.17;94.17;95784.44;4985156;28;20125;-63
2021/01/31 04:48:41;;;;;;;70.75;35.22;;;;;;;1.11;93.79;95761.25;4984942;28;20034;-63
2021/01/31 04:52:03;;;;;;;53.22;26.95;;;;;;;1.84;94.13;95897.63;4986545;28;20590;-63
2021/01/31 04:55:06;;;;;;;70.97;32.83;;;;;;;1.76;94.47;95890.34;4945143;29;20066;-64
2021/01/31 04:57:50;;;;;;;74.85;31.23;;;;;;;1.35;95.15;95867.63;4932691;29;20059;-63
2021/01/31 05:00:23;;;;;;;72.53;30.63;;;;;;;1.68;95.49;95888.53;4975149;28;20047;-63
2021/01/31 05:03:02;;;;;;;62.05;24.23;;;;;;;1.31;95.08;95839.41;4984859;28;20081;-63
2021/01/31 05:05:35;;;;;;;39.72;17.60;;;;;;;1.23;94.80;95834.09;4984730;28;20517;-65
2021/01/31 05:08:16;;;;;;;77.22;33.70;;;;;;;0.97;93.48;95765.44;4986525;28;20030;-63
2021/01/31 05:10:41;;;;;;;76.82;31.67;;;;;;;1.76;93.03;95914.91;4986882;28;20065;-62
2021/01/31 05:13:21;;;;;;;71.53;31.08;;;;;;;1.74;93.39;95909.00;4984980;28;20501;-63
2021/01/31 05:16:16;;;;;;;62.20;29.40;;;;;;;1.66;93.61;95907.19;4984536;28;20437;-64
2021/01/31 05:18:48;;;;;;;39.30;19.17;;;;;;;1.66;93.57;95918.09;4977189;28;20054;-64
2021/01/31 05:21:18;;;;;;;37.42;19.35;;;;;;;1.72;93.28;95911.28;4984251;28;20046;-64
2021/01/31 05:23:53;;;;;;;142.73;56.20;;;;;;;1.81;92.30;95911.94;4985833;28;20050;-64
2021/01/31 05:26:19;;;;;;;110.57;50.65;;;;;;;1.81;91.81;95915.47;4986384;28;20056;-64
2021/01/31 05:28:55;;;;;;;109.38;48.28;;;;;;;1.51;93.16;95916.84;4984455;28;20451;-65
2021/01/31 05:31:24;;;;;;;97.20;45.58;;;;;;;1.55;94.22;95918.53;4984113;28;20104;-64
2021/01/31 05:33:56;;;;;;;90.68;40.85;;;;;;;0.85;93.69;95823.50;4983665;28;20038;-65
2021/01/31 05:36:28;;;;;;;85.60;38.95;;;;;;;1.71;93.95;95920.63;4985774;28;20038;-65
2021/01/31 05:38:54;;;;;;;82.53;39.70;;;;;;;1.64;93.76;95914.91;4985725;28;20043;-66
2021/01/31 05:41:43;;;;;;;80.20;37.58;;;;;;;1.80;93.52;95941.19;4985453;28;20085;-64
2021/01/31 05:44:14;;;;;;;125.85;54.05;;;;;;;1.82;93.77;95943.59;4984162;28;20049;-65
2021/01/31 05:46:49;;;;;;;131.13;55.75;;;;;;;1.89;93.25;95949.25;4983815;28;20035;-64
2021/01/31 05:49:35;;;;;;;64.50;33.17;;;;;;;2.04;91.94;95951.31;4985523;28;20038;-64
2021/01/31 05:52:03;;;;;;;58.67;29.40;;;;;;;1.80;92.70;95952.13;4984270;28;20429;-64
2021/01/31 05:54:34;;;;;;;45.17;20.38;;;;;;;0.35;95.73;95795.66;4983859;28;20924;-63
2021/01/31 05:57:00;;;;;;;52.28;24.15;;;;;;;0.91;97.08;95887.53;4983424;28;20141;-66
2021/01/31 05:59:38;;;;;;;56.22;26.23;;;;;;;1.18;94.83;95892.38;4983193;28;20132;-64
2021/01/31 06:02:04;;;;;;;49.45;22.10;;;;;;;1.55;94.44;95936.84;4984814;28;20046;-64
2021/01/31 06:04:30;;;;;;;44.88;22.60;;;;;;;1.60;94.55;95963.13;4984963;28;20042;-65
2021/01/31 06:07:17;;;;;;;53.60;25.08;;;;;;;1.04;94.42;95859.16;4984844;28;20093;-64
2021/01/31 06:09:49;;;;;;;56.88;26.08;;;;;;;1.87;94.70;96060.72;4985393;28;20038;-65
2021/01/31 06:12:21;;;;;;;34.92;17.13;;;;;;;2.00;93.25;95964.03;4983667;28;20415;-64
2021/01/31 06:14:49;;;;;;;53.30;25.10;;;;;;;1.37;92.85;95884.44;4985561;28;20042;-63
2021/01/31 06:17:24;;;;;;;62.97;31.77;;;;;;;1.88;92.97;95895.81;4984927;28;20120;-64
2021/01/31 06:20:00;;;;;;;81.90;39.35;;;;;;;2.13;92.68;95900.91;4985352;28;20050;-65
2021/01/31 06:22:47;;;;;;;141.73;65.00;;;;;;;2.68;91.07;95943.91;4984948;28;20096;-64
2021/01/31 06:25:35;;;;;;;114.93;54.60;;;;;;;3.11;87.27;95974.81;4985357;28;20505;-65
2021/01/31 06:28:19;;;;;;;118.82;54.72;;;;;;;3.03;85.54;95944.91;4982796;28;20038;-65
2021/01/31 06:30:56;;;;;;;115.65;57.05;;;;;;;3.25;85.89;95996.31;4984893;28;20042;-65
2021/01/31 06:33:22;;;;;;;147.55;70.40;;;;;;;2.79;86.33;95967.66;4985259;28;20069;-64
2021/01/31 06:36:06;;;;;;;94.30;44.03;;;;;;;3.07;86.36;96000.47;4985124;28;20072;-66
2021/01/31 06:38:38;;;;;;;87.63;42.28;;;;;;;2.85;87.27;95976.41;4983472;28;20145;-64
2021/01/31 06:41:37;;;;;;;92.13;43.40;;;;;;;3.08;86.82;96018.50;4983300;28;20074;-65
2021/01/31 06:44:25;;;;;;;96.72;48.90;;;;;;;3.18;85.84;96011.75;4983518;28;20046;-65
2021/01/31 06:47:24;;;;;;;124.60;63.80;;;;;;;3.18;86.40;96017.22;4987981;28;20536;-66
2021/01/31 06:50:12;;;;;;;144.75;69.53;;;;;;;3.27;86.29;96015.94;4989291;28;20053;-64
2021/01/31 06:52:58;;;;;;;134.88;59.80;;;;;;;3.41;84.60;96021.78;4987081;28;20073;-64
2021/01/31 06:55:46;;;;;;;141.85;60.53;;;;;;;3.26;85.23;96019.78;4988749;28;20101;-64
2021/01/31 06:58:31;;;;;;;111.78;52.17;;;;;;;2.73;85.69;95924.53;4987010;28;20073;-65
2021/01/31 07:01:08;;;;;;;72.90;36.35;;;;;;;3.56;84.25;96017.47;4989230;28;20142;-66
2021/01/31 07:04:01;;;;;;;72.25;34.40;;;;;;;2.98;87.73;96019.00;4988895;28;20507;-65
2021/01/31 07:06:32;;;;;;;67.75;33.08;;;;;;;2.92;89.64;96014.91;4969083;28;20106;-65
2021/01/31 07:09:26;;;;;;;65.18;31.40;;;;;;;3.32;88.44;96004.72;4969196;28;20046;-67
2021/01/31 07:12:36;;;;;;;57.83;30.02;;;;;;;3.88;86.40;96011.72;4969160;28;20035;-67
2021/01/31 07:15:14;;;;;;;64.28;31.73;;;;;;;4.20;84.75;96018.78;4958253;28;20102;-66
2021/01/31 07:17:50;;;;;;;65.18;33.55;;;;;;;4.36;82.36;96013.28;4968988;28;20030;-67
2021/01/31 07:20:30;;;;;;;91.82;45.38;;;;;;;4.61;79.47;96033.84;4968940;28;20050;-67
2021/01/31 07:23:19;;;;;;;112.18;57.33;;;;;;;4.00;79.30;95918.47;4968678;28;20038;-65
2021/01/31 07:26:16;;;;;;;135.52;69.70;;;;;;;4.94;78.31;96033.41;4983411;28;20043;-66
2021/01/31 07:28:44;;;;;;;133.43;66.10;;;;;;;5.22;78.51;96028.53;4960962;28;20789;-66
2021/01/31 07:31:17;;;;;;;120.18;62.95;;;;;;;5.10;76.77;95971.03;4968432;28;20068;-67
2021/01/31 07:34:13;;;;;;;107.07;57.47;;;;;;;5.60;76.57;96012.03;4983682;28;20434;-66
2021/01/31 07:37:06;;;;;;;120.78;62.42;;;;;;;5.88;75.52;96029.09;4968682;28;20513;-66
2021/01/31 07:39:57;;;;;;;143.73;69.05;;;;;;;6.20;71.99;96029.66;4983253;28;20038;-67
2021/01/31 07:42:26;;;;;;;152.18;73.88;;;;;;;6.46;70.82;96038.75;4968069;28;20498;-66
2021/01/31 07:45:00;;;;;;;151.75;69.72;;;;;;;6.83;70.79;96034.22;5001037;28;20038;-68
2021/01/31 07:47:25;;;;;;;125.53;60.90;;;;;;;7.18;69.49;96026.47;4985770;28;20182;-67
2021/01/31 07:49:54;;;;;;;121.70;61.40;;;;;;;7.46;66.45;96037.06;4986073;28;20101;-67
2021/01/31 07:52:20;;;;;;;83.38;44.53;;;;;;;7.30;67.04;96045.50;4985257;28;20038;-67
2021/01/31 07:54:46;;;;;;;32.95;18.38;;;;;;;7.39;64.07;96021.22;4986074;28;20050;-66
2021/01/31 07:57:25;;;;;;;29.25;15.75;;;;;;;6.70;63.63;95922.75;4986456;28;20683;-67
2021/01/31 07:59:52;;;;;;;41.28;23.83;;;;;;;6.63;68.25;96051.19;4987781;28;20054;-67
2021/01/31 08:02:44;;;;;;;37.05;21.83;;;;;;;6.30;71.64;96040.84;4985482;28;20029;-67
2021/01/31 08:05:13;;;;;;;26.98;16.13;;;;;;;6.65;66.90;96041.41;4982554;28;20050;-68
2021/01/31 08:08:06;;;;;;;22.42;14.27;;;;;;;7.06;65.32;96034.97;4985621;28;20057;-65
2021/01/31 08:10:50;;;;;;;20.90;11.93;;;;;;;7.26;64.39;96039.16;4987284;28;20496;-64
2021/01/31 08:13:35;;;;;;;;;;;;;;;7.00;65.63;96091.47;4988015;28;20038;-65
2021/01/31 08:16:22;;;;;;;15.68;8.80;;;;;;;7.37;65.60;96029.06;4986733;28;19918;-67
2021/01/31 08:19:24;;;;;;;15.95;8.07;;;;;;;6.76;67.97;96025.88;4985922;28;20066;-66
2021/01/31 08:22:12;;;;;;;12.70;7.53;;;;;;;6.60;69.04;96021.66;4984790;28;20179;-67
2021/01/31 08:25:20;;;;;;;13.70;8.63;;;;;;;7.28;68.03;96025.81;4987413;28;20096;-67
2021/01/31 08:28:08;;;;;;;20.95;10.35;;;;;;;7.51;65.05;96023.72;4985727;28;20077;-66
2021/01/31 08:30:35;;;;;;;53.05;30.65;;;;;;;7.93;64.66;96022.63;4987052;28;20560;-66
2021/01/31 08:33:13;;;;;;;11.63;7.25;;;;;;;7.50;63.97;96022.16;4985875;28;20038;-67
2021/01/31 08:35:41;;;;;;;44.75;22.65;;;;;;;7.91;64.67;96017.50;4987094;28;20142;-69
2021/01/31 08:38:16;;;;;;;21.95;12.10;;;;;;;8.23;62.79;96015.09;4987103;28;20105;-68
2021/01/31 08:41:04;;;;;;;44.42;26.17;;;;;;;8.51;63.51;96020.84;4985233;28;20402;-67
2021/01/31 08:43:39;;;;;;;32.83;20.23;;;;;;;8.68;63.24;95996.16;4986518;28;20506;-67
2021/01/31 08:46:13;;;;;;;21.00;13.52;;;;;;;9.33;61.64;96001.66;4986618;28;20496;-67
2021/01/31 08:48:40;;;;;;;21.90;11.55;;;;;;;9.76;59.92;96006.19;4986777;28;20034;-67
2021/01/31 08:51:05;;;;;;;10.02;6.72;;;;;;;9.66;55.51;96004.19;4984829;28;20073;-68
2021/01/31 08:53:33;;;;;;;11.40;6.32;;;;;;;8.57;58.66;95991.72;4984995;28;20149;-67
2021/01/31 08:56:23;;;;;;;7.43;4.85;;;;;;;8.62;58.81;96011.47;4986454;28;20560;-67
2021/01/31 08:58:49;;;;;;;7.35;4.97;;;;;;;8.05;59.55;95914.81;4984976;28;20505;-67
2021/01/31 09:01:15;;;;;;;9.25;5.28;;;;;;;8.74;58.76;95980.03;4984593;28;20062;-67
2021/01/31 09:03:43;;;;;;;8.65;5.00;;;;;;;8.62;58.25;95949.97;4986427;28;20070;-67
2021/01/31 09:06:09;;;;;;;19.48;12.80;;;;;;;9.54;57.81;96007.28;4986302;28;20425;-68
2021/01/31 09:08:36;;;;;;;7.45;5.65;;;;;;;9.49;55.57;95938.56;4986114;28;20125;-71
2021/01/31 09:11:06;;;;;;;9.77;6.65;;;;;;;10.07;54.80;95975.06;4986179;28;20493;-68
2021/01/31 09:13:34;;;;;;;8.05;5.00;;;;;;;10.77;54.15;96003.97;4986188;28;20548;-69
2021/01/31 09:16:22;;;;;;;12.23;8.95;;;;;;;11.09;52.07;96018.59;4985865;28;20030;-67
2021/01/31 09:19:22;;;;;;;10.38;5.93;;;;;;;11.16;51.36;96024.13;4984111;28;20050;-66
2021/01/31 09:21:53;;;;;;;8.25;5.32;;;;;;;11.13;50.39;95991.69;4985796;28;20069;-68
2021/01/31 09:24:21;;;;;;;14.25;8.40;;;;;;;11.69;50.52;96020.06;4986542;28;20046;-68
2021/01/31 09:26:56;;;;;;;13.30;8.50;;;;;;;11.82;49.08;96034.25;4986191;28;20084;-67
2021/01/31 09:29:25;;;;;;;12.88;7.72;;;;;;;11.84;48.95;96017.97;4986411;28;20042;-69
2021/01/31 09:31:55;;;;;;;16.92;10.55;;;;;;;11.68;48.51;96001.03;4985405;28;20540;-68
2021/01/31 09:34:25;;;;;;;16.05;10.68;;;;;;;11.93;48.41;96023.91;4984556;28;20034;-67
2021/01/31 09:37:09;;;;;;;16.00;10.10;;;;;;;11.73;47.00;95942.34;4985693;28;20091;-67
2021/01/31 09:39:38;;;;;;;22.75;11.73;;;;;;;12.37;48.08;95996.28;4985555;28;20048;-68
2021/01/31 09:42:04;;;;;;;10.05;6.75;;;;;;;12.14;46.70;95954.38;4983865;28;20073;-68
2021/01/31 09:44:32;;;;;;;16.67;9.20;;;;;;;12.45;47.42;95994.25;4985825;28;20042;-71
2021/01/31 09:46:58;;;;;;;7.25;5.03;;;;;;;11.99;50.03;95995.34;4985518;28;20072;-67
2021/01/31 09:49:27;;;;;;;10.63;6.03;;;;;;;12.16;50.57;95988.88;4985525;28;20070;-69
2021/01/31 09:51:53;;;;;;;7.00;4.97;;;;;;;12.03;49.68;95986.97;4983344;28;20555;-67
2021/01/31 09:54:20;;;;;;;5.95;4.40;;;;;;;11.06;52.14;95992.47;4985501;28;20048;-67
2021/01/31 09:56:56;;;;;;;6.30;4.30;;;;;;;11.61;50.09;95989.94;4983782;28;20034;-68
2021/01/31 09:59:22;;;;;;;5.07;3.85;;;;;;;11.90;49.07;95986.63;4985201;28;20240;-66
2021/01/31 10:01:49;;;;;;;6.40;4.10;;;;;;;11.54;48.36;95979.66;4983584;28;20417;-66
2021/01/31 10:04:23;;;;;;;5.28;3.80;;;;;;;11.82;48.36;95981.56;4983353;28;20049;-66
2021/01/31 10:06:49;;;;;;;;;;;;;;;11.26;48.39;95981.72;4984074;28;20026;-67
2021/01/31 10:09:29;;;;;;;6.22;4.35;;;;;;;11.23;50.13;95990.84;4983596;28;19937;-66
2021/01/31 10:12:23;;;;;;;6.05;4.10;;;;;;;10.10;51.09;95858.09;4985131;28;20121;-66
2021/01/31 10:14:59;;;;;;;6.65;4.38;;;;;;;10.58;52.66;95994.09;4983713;28;20043;-67
2021/01/31 10:17:28;;;;;;;4.95;4.22;;;;;;;10.56;53.67;95996.47;4985142;28;20084;-66
2021/01/31 10:20:25;;;;;;;5.78;4.15;;;;;;;9.99;53.14;95984.50;4984881;28;20345;-65
2021/01/31 10:22:52;;;;;;;4.40;3.38;;;;;;;9.37;55.59;95974.84;4964294;28;20043;-68
2021/01/31 10:25:18;;;;;;;6.57;3.65;;;;;;;9.07;55.82;95982.59;4965263;28;20490;-67
2021/01/31 10:27:46;;;;;;;5.53;4.18;;;;;;;9.35;56.37;95974.44;4965591;28;20097;-66
2021/01/31 10:30:21;;;;;;;7.03;4.20;;;;;;;8.87;55.66;95906.72;4965819;28;20039;-66
2021/01/31 10:32:47;;;;;;;7.18;4.15;;;;;;;8.68;55.63;95898.72;4979788;28;20026;-67
2021/01/31 10:35:23;;;;;;;7.65;4.25;;;;;;;9.38;55.61;95987.47;4965765;28;20046;-67
2021/01/31 10:37:49;;;;;;;5.82;3.97;;;;;;;8.73;55.07;95810.03;4965683;28;20045;-67
2021/01/31 10:40:15;;;;;;;6.28;4.03;;;;;;;9.55;55.36;95975.69;4965352;28;20038;-66
2021/01/31 10:42:40;;;;;;;9.48;4.38;;;;;;;9.40;54.93;95882.88;4965627;28;20045;-67
2021/01/31 10:45:10;;;;;;;10.00;7.30;;;;;;;10.49;55.90;95961.28;4980053;28;20121;-67
2021/01/31 10:47:35;;;;;;;7.35;4.45;;;;;;;10.89;52.87;95964.81;4983153;28;20030;-68
2021/01/31 10:50:01;;;;;;;5.32;4.20;;;;;;;10.12;54.03;95971.94;4983688;28;20053;-67
2021/01/31 10:52:26;;;;;;;7.88;4.07;;;;;;;10.20;54.65;95962.44;4984590;28;20108;-68
2021/01/31 10:54:52;;;;;;;4.63;3.70;;;;;;;10.16;54.45;95972.72;4983071;28;20097;-68
2021/01/31 10:57:17;;;;;;;6.13;4.20;;;;;;;10.37;54.04;95972.72;4984711;28;20069;-68
2021/01/31 10:59:42;;;;;;;9.25;4.15;;;;;;;10.55;53.68;95956.13;4984951;28;20039;-67
2021/01/31 11:02:08;;;;;;;6.57;4.28;;;;;;;10.70;52.18;95952.94;4984611;28;20837;-73
2021/01/31 11:04:34;;;;;;;4.90;2.90;;;;;;;10.03;53.41;95960.44;4984951;28;20065;-75
2021/01/31 11:06:59;;;;;;;7.20;3.90;;;;;;;9.45;54.49;95885.25;4985068;28;20058;-73
2021/01/31 11:09:24;;;;;;;6.53;4.40;;;;;;;9.05;54.53;95896.56;4984870;28;20046;-76
2021/01/31 11:11:50;;;;;;;8.35;4.72;;;;;;;9.88;53.73;95906.25;4984281;28;20109;-72
2021/01/31 11:14:15;;;;;;;9.98;4.80;;;;;;;10.34;52.99;95962.47;4984947;28;20631;-75
2021/01/31 11:16:41;;;;;;;6.72;4.20;;;;;;;9.91;51.84;95888.88;4983018;28;20034;-76
2021/01/31 11:19:07;;;;;;;6.45;3.72;;;;;;;7.64;52.15;95592.44;4983240;28;20050;-73
2021/01/31 11:21:32;;;;;;;5.68;3.58;;;;;;;9.10;52.71;95832.66;4984894;28;20470;-75
2021/01/31 11:23:58;;;;;;;5.47;4.00;;;;;;;10.27;52.05;95973.53;4984591;28;20034;-75
2021/01/31 11:26:24;;;;;;;6.28;3.72;;;;;;;10.56;51.89;95964.03;4982835;28;20030;-75
2021/01/31 11:28:51;;;;;;;6.05;3.95;;;;;;;9.74;53.53;95909.00;4984596;28;20077;-76
2021/01/31 11:31:17;;;;;;;7.50;4.75;;;;;;;9.66;53.96;95932.28;4984492;28;20076;-76
2021/01/31 11:33:43;;;;;;;7.30;4.40;;;;;;;10.13;55.18;95969.97;4985572;28;20034;-76
2021/01/31 11:36:09;;;;;;;9.70;5.20;;;;;;;7.06;54.36;95511.91;4987864;28;20042;-75
2021/01/31 11:38:34;;;;;;;7.72;4.85;;;;;;;8.96;55.38;95866.53;4988599;28;20509;-75
2021/01/31 11:41:00;;;;;;;8.43;5.32;;;;;;;9.79;56.14;95949.31;4987914;28;20069;-74
2021/01/31 11:43:25;;;;;;;8.15;4.97;;;;;;;9.38;56.37;95829.97;4988011;28;20060;-76
2021/01/31 11:45:51;;;;;;;8.10;5.10;;;;;;;9.91;57.14;95944.19;4986087;28;20049;-74
2021/01/31 11:48:18;;;;;;;7.13;5.30;;;;;;;10.11;56.71;95939.91;4988345;28;20034;-74
2021/01/31 11:50:45;;;;;;;6.65;4.97;;;;;;;10.46;55.58;95939.91;4987602;28;20030;-75
2021/01/31 11:53:10;;;;;;;7.97;5.47;;;;;;;10.81;54.31;95930.78;4986164;28;20038;-73
2021/01/31 11:55:35;;;;;;;10.82;6.38;;;;;;;9.26;55.90;95750.22;4987611;28;20032;-74
2021/01/31 11:58:01;;;;;;;7.38;5.07;;;;;;;9.90;56.54;95884.53;4987508;28;20038;-74